sensor_id;sensor_type;location;lat;lon;timestamp;P1;P2;P0
51052;PMS5003;37093;37.716;-122.060;2023-05-20T00:01:08;7;5;
51052;PMS5003;37093;37.716;-122.060;2023-05-20T00:03:36;4;3;
51052;PMS5003;37093;37.716;-122.060;2023-05-20T00:06:04;11;8;
51052;PMS5003;37093;37.716;-122.060;2023-05-20T00:08:32;6;6;
51052;PMS5003;37093;37.716;-122.060;2023-05-20T00:11:00;10;6;
51052;PMS5003;37093;37.716;-122.060;2023-05-20T00:13:29;4;4;
51052;PMS5003;37093;37.716;-122.060;2023-05-20T00:15:57;9;6;
51052;PMS5003;37093;37.716;-122.060;2023-05-20T00:18:26;5;4;
51052;PMS5003;37093;37.716;-122.060;2023-05-20T00:20:55;4;4;
51052;PMS5003;37093;37.716;-122.060;2023-05-20T00:23:23;7;7;
51052;PMS5003;37093;37.716;-122.060;2023-05-20T00:25:52;7;6;
51052;PMS5003;37093;37.716;-122.060;2023-05-20T00:28:20;9;5;
51052;PMS5003;37093;37.716;-122.060;2023-05-20T00:30:48;11;7;
51052;PMS5003;37093;37.716;-122.060;2023-05-20T00:33:17;5;5;
51052;PMS5003;37093;37.716;-122.060;2023-05-20T00:35:45;5;5;
51052;PMS5003;37093;37.716;-122.060;2023-05-20T00:38:14;10;6;
51052;PMS5003;37093;37.716;-122.060;2023-05-20T00:40:43;7;4;
51052;PMS5003;37093;37.716;-122.060;2023-05-20T00:43:11;8;7;
51052;PMS5003;37093;37.716;-122.060;2023-05-20T00:45:39;4;4;
51052;PMS5003;37093;37.716;-122.060;2023-05-20T00:48:08;10;7;
51052;PMS5003;37093;37.716;-122.060;2023-05-20T00:50:36;4;4;
51052;PMS5003;37093;37.716;-122.060;2023-05-20T00:53:05;4;4;
51052;PMS5003;37093;37.716;-122.060;2023-05-20T00:55:34;6;6;
51052;PMS5003;37093;37.716;-122.060;2023-05-20T00:58:02;8;5;
51052;PMS5003;37093;37.716;-122.060;2023-05-20T01:00:31;7;6;
51052;PMS5003;37093;37.716;-122.060;2023-05-20T01:03:00;10;6;
51052;PMS5003;37093;37.716;-122.060;2023-05-20T01:05:28;7;6;
51052;PMS5003;37093;37.716;-122.060;2023-05-20T01:07:57;5;3;
51052;PMS5003;37093;37.716;-122.060;2023-05-20T01:10:25;4;4;
51052;PMS5003;37093;37.716;-122.060;2023-05-20T01:12:58;5;4;
51052;PMS5003;37093;37.716;-122.060;2023-05-20T01:15:31;7;4;
51052;PMS5003;37093;37.716;-122.060;2023-05-20T01:18:01;8;5;
51052;PMS5003;37093;37.716;-122.060;2023-05-20T01:20:33;10;6;
51052;PMS5003;37093;37.716;-122.060;2023-05-20T01:23:03;5;3;
51052;PMS5003;37093;37.716;-122.060;2023-05-20T01:25:31;7;6;
51052;PMS5003;37093;37.716;-122.060;2023-05-20T01:28:00;7;5;
51052;PMS5003;37093;37.716;-122.060;2023-05-20T01:30:29;10;8;
51052;PMS5003;37093;37.716;-122.060;2023-05-20T01:33:04;6;5;
51052;PMS5003;37093;37.716;-122.060;2023-05-20T01:35:36;7;6;
51052;PMS5003;37093;37.716;-122.060;2023-05-20T01:38:06;4;4;
51052;PMS5003;37093;37.716;-122.060;2023-05-20T01:40:35;4;4;
51052;PMS5003;37093;37.716;-122.060;2023-05-20T01:43:04;7;4;
51052;PMS5003;37093;37.716;-122.060;2023-05-20T01:45:33;6;4;
51052;PMS5003;37093;37.716;-122.060;2023-05-20T01:48:01;9;7;
51052;PMS5003;37093;37.716;-122.060;2023-05-20T01:50:30;15;5;
51052;PMS5003;37093;37.716;-122.060;2023-05-20T01:52:58;5;5;
51052;PMS5003;37093;37.716;-122.060;2023-05-20T01:55:27;6;4;
51052;PMS5003;37093;37.716;-122.060;2023-05-20T01:57:56;10;6;
51052;PMS5003;37093;37.716;-122.060;2023-05-20T02:00:24;9;6;
51052;PMS5003;37093;37.716;-122.060;2023-05-20T02:02:52;8;5;
51052;PMS5003;37093;37.716;-122.060;2023-05-20T02:05:21;12;7;
51052;PMS5003;37093;37.716;-122.060;2023-05-20T02:07:49;6;6;
51052;PMS5003;37093;37.716;-122.060;2023-05-20T02:10:18;6;4;
51052;PMS5003;37093;37.716;-122.060;2023-05-20T02:12:46;9;5;
51052;PMS5003;37093;37.716;-122.060;2023-05-20T02:15:15;10;5;
51052;PMS5003;37093;37.716;-122.060;2023-05-20T02:17:44;8;5;
51052;PMS5003;37093;37.716;-122.060;2023-05-20T02:20:13;5;2;
51052;PMS5003;37093;37.716;-122.060;2023-05-20T02:22:41;10;5;
51052;PMS5003;37093;37.716;-122.060;2023-05-20T02:25:09;15;5;
51052;PMS5003;37093;37.716;-122.060;2023-05-20T02:27:37;6;5;
51052;PMS5003;37093;37.716;-122.060;2023-05-20T02:30:06;7;6;
51052;PMS5003;37093;37.716;-122.060;2023-05-20T02:32:35;13;5;
51052;PMS5003;37093;37.716;-122.060;2023-05-20T02:35:04;7;6;
51052;PMS5003;37093;37.716;-122.060;2023-05-20T02:37:33;7;4;
51052;PMS5003;37093;37.716;-122.060;2023-05-20T02:40:01;6;5;
51052;PMS5003;37093;37.716;-122.060;2023-05-20T02:42:30;7;4;
51052;PMS5003;37093;37.716;-122.060;2023-05-20T02:44:58;7;4;
51052;PMS5003;37093;37.716;-122.060;2023-05-20T02:47:27;10;5;
51052;PMS5003;37093;37.716;-122.060;2023-05-20T02:49:56;16;5;
51052;PMS5003;37093;37.716;-122.060;2023-05-20T02:52:25;7;6;
51052;PMS5003;37093;37.716;-122.060;2023-05-20T02:54:53;10;7;
51052;PMS5003;37093;37.716;-122.060;2023-05-20T02:57:22;11;8;
51052;PMS5003;37093;37.716;-122.060;2023-05-20T02:59:51;9;6;
51052;PMS5003;37093;37.716;-122.060;2023-05-20T03:02:19;8;5;
51052;PMS5003;37093;37.716;-122.060;2023-05-20T03:04:48;7;6;
51052;PMS5003;37093;37.716;-122.060;2023-05-20T03:07:16;8;5;
51052;PMS5003;37093;37.716;-122.060;2023-05-20T03:09:44;12;7;
51052;PMS5003;37093;37.716;-122.060;2023-05-20T03:12:13;7;6;
51052;PMS5003;37093;37.716;-122.060;2023-05-20T03:14:41;9;7;
51052;PMS5003;37093;37.716;-122.060;2023-05-20T03:17:10;7;5;
51052;PMS5003;37093;37.716;-122.060;2023-05-20T03:19:38;6;4;
51052;PMS5003;37093;37.716;-122.060;2023-05-20T03:22:07;14;8;
51052;PMS5003;37093;37.716;-122.060;2023-05-20T03:24:35;6;6;
51052;PMS5003;37093;37.716;-122.060;2023-05-20T03:27:04;7;6;
51052;PMS5003;37093;37.716;-122.060;2023-05-20T03:29:32;8;7;
51052;PMS5003;37093;37.716;-122.060;2023-05-20T03:32:01;5;4;
51052;PMS5003;37093;37.716;-122.060;2023-05-20T03:34:29;8;6;
51052;PMS5003;37093;37.716;-122.060;2023-05-20T03:36:58;6;5;
51052;PMS5003;37093;37.716;-122.060;2023-05-20T03:39:26;7;6;
51052;PMS5003;37093;37.716;-122.060;2023-05-20T03:41:55;8;7;
51052;PMS5003;37093;37.716;-122.060;2023-05-20T03:44:23;8;6;
51052;PMS5003;37093;37.716;-122.060;2023-05-20T03:46:51;8;4;
51052;PMS5003;37093;37.716;-122.060;2023-05-20T03:49:19;6;6;
51052;PMS5003;37093;37.716;-122.060;2023-05-20T03:51:48;9;7;
51052;PMS5003;37093;37.716;-122.060;2023-05-20T03:54:17;8;6;
51052;PMS5003;37093;37.716;-122.060;2023-05-20T03:56:45;6;4;
51052;PMS5003;37093;37.716;-122.060;2023-05-20T03:59:13;5;4;
51052;PMS5003;37093;37.716;-122.060;2023-05-20T04:01:41;5;4;
51052;PMS5003;37093;37.716;-122.060;2023-05-20T04:04:10;18;5;
51052;PMS5003;37093;37.716;-122.060;2023-05-20T04:06:38;7;4;
51052;PMS5003;37093;37.716;-122.060;2023-05-20T04:09:07;19;8;
51052;PMS5003;37093;37.716;-122.060;2023-05-20T04:11:35;11;5;
51052;PMS5003;37093;37.716;-122.060;2023-05-20T04:14:03;12;6;
51052;PMS5003;37093;37.716;-122.060;2023-05-20T04:16:32;7;3;
51052;PMS5003;37093;37.716;-122.060;2023-05-20T04:19:01;10;5;
51052;PMS5003;37093;37.716;-122.060;2023-05-20T04:21:29;6;4;
51052;PMS5003;37093;37.716;-122.060;2023-05-20T04:23:57;7;5;
51052;PMS5003;37093;37.716;-122.060;2023-05-20T04:26:26;6;5;
51052;PMS5003;37093;37.716;-122.060;2023-05-20T04:28:55;4;3;
51052;PMS5003;37093;37.716;-122.060;2023-05-20T04:31:23;7;4;
51052;PMS5003;37093;37.716;-122.060;2023-05-20T04:33:51;4;4;
51052;PMS5003;37093;37.716;-122.060;2023-05-20T04:36:20;7;4;
51052;PMS5003;37093;37.716;-122.060;2023-05-20T04:38:49;8;5;
51052;PMS5003;37093;37.716;-122.060;2023-05-20T04:41:18;5;4;
51052;PMS5003;37093;37.716;-122.060;2023-05-20T04:43:46;6;5;
51052;PMS5003;37093;37.716;-122.060;2023-05-20T04:46:14;4;2;
51052;PMS5003;37093;37.716;-122.060;2023-05-20T04:48:43;4;4;
51052;PMS5003;37093;37.716;-122.060;2023-05-20T04:51:11;8;6;
51052;PMS5003;37093;37.716;-122.060;2023-05-20T04:53:40;6;6;
51052;PMS5003;37093;37.716;-122.060;2023-05-20T04:56:08;4;4;
51052;PMS5003;37093;37.716;-122.060;2023-05-20T04:58:37;7;4;
51052;PMS5003;37093;37.716;-122.060;2023-05-20T05:01:05;7;4;
51052;PMS5003;37093;37.716;-122.060;2023-05-20T05:03:34;8;4;
51052;PMS5003;37093;37.716;-122.060;2023-05-20T05:06:03;4;4;
51052;PMS5003;37093;37.716;-122.060;2023-05-20T05:08:31;6;5;
51052;PMS5003;37093;37.716;-122.060;2023-05-20T05:10:59;7;4;
51052;PMS5003;37093;37.716;-122.060;2023-05-20T05:13:28;6;5;
51052;PMS5003;37093;37.716;-122.060;2023-05-20T05:15:57;17;4;
51052;PMS5003;37093;37.716;-122.060;2023-05-20T05:18:26;8;4;
51052;PMS5003;37093;37.716;-122.060;2023-05-20T05:20:58;6;5;
51052;PMS5003;37093;37.716;-122.060;2023-05-20T05:23:27;8;4;
51052;PMS5003;37093;37.716;-122.060;2023-05-20T05:25:56;6;4;
51052;PMS5003;37093;37.716;-122.060;2023-05-20T05:28:24;6;6;
51052;PMS5003;37093;37.716;-122.060;2023-05-20T05:30:53;4;3;
51052;PMS5003;37093;37.716;-122.060;2023-05-20T05:33:22;7;4;
51052;PMS5003;37093;37.716;-122.060;2023-05-20T05:35:51;8;2;
51052;PMS5003;37093;37.716;-122.060;2023-05-20T05:38:19;3;3;
51052;PMS5003;37093;37.716;-122.060;2023-05-20T05:40:47;7;4;
51052;PMS5003;37093;37.716;-122.060;2023-05-20T05:43:15;4;4;
51052;PMS5003;37093;37.716;-122.060;2023-05-20T05:45:44;5;5;
51052;PMS5003;37093;37.716;-122.060;2023-05-20T05:48:12;13;3;
51052;PMS5003;37093;37.716;-122.060;2023-05-20T05:50:43;8;4;
51052;PMS5003;37093;37.716;-122.060;2023-05-20T05:53:11;15;5;
51052;PMS5003;37093;37.716;-122.060;2023-05-20T05:55:40;4;2;
51052;PMS5003;37093;37.716;-122.060;2023-05-20T05:58:08;5;4;
51052;PMS5003;37093;37.716;-122.060;2023-05-20T06:00:37;6;5;
51052;PMS5003;37093;37.716;-122.060;2023-05-20T06:03:05;4;3;
51052;PMS5003;37093;37.716;-122.060;2023-05-20T06:05:34;7;3;
51052;PMS5003;37093;37.716;-122.060;2023-05-20T06:08:03;7;5;
51052;PMS5003;37093;37.716;-122.060;2023-05-20T06:10:31;6;3;
51052;PMS5003;37093;37.716;-122.060;2023-05-20T06:13:00;6;3;
51052;PMS5003;37093;37.716;-122.060;2023-05-20T06:15:28;5;3;
51052;PMS5003;37093;37.716;-122.060;2023-05-20T06:17:56;4;3;
51052;PMS5003;37093;37.716;-122.060;2023-05-20T06:20:25;5;4;
51052;PMS5003;37093;37.716;-122.060;2023-05-20T06:22:53;4;4;
51052;PMS5003;37093;37.716;-122.060;2023-05-20T06:25:22;8;8;
51052;PMS5003;37093;37.716;-122.060;2023-05-20T06:27:50;6;5;
51052;PMS5003;37093;37.716;-122.060;2023-05-20T06:30:19;8;4;
51052;PMS5003;37093;37.716;-122.060;2023-05-20T06:32:47;7;5;
51052;PMS5003;37093;37.716;-122.060;2023-05-20T06:35:16;8;4;
51052;PMS5003;37093;37.716;-122.060;2023-05-20T06:37:44;7;5;
51052;PMS5003;37093;37.716;-122.060;2023-05-20T06:40:13;8;5;
51052;PMS5003;37093;37.716;-122.060;2023-05-20T06:42:41;3;3;
51052;PMS5003;37093;37.716;-122.060;2023-05-20T06:45:10;9;6;
51052;PMS5003;37093;37.716;-122.060;2023-05-20T06:47:39;16;4;
51052;PMS5003;37093;37.716;-122.060;2023-05-20T06:50:07;9;6;
51052;PMS5003;37093;37.716;-122.060;2023-05-20T06:52:36;9;4;
51052;PMS5003;37093;37.716;-122.060;2023-05-20T06:55:05;4;2;
51052;PMS5003;37093;37.716;-122.060;2023-05-20T06:57:35;3;2;
51052;PMS5003;37093;37.716;-122.060;2023-05-20T07:01:12;10;2;
51052;PMS5003;37093;37.716;-122.060;2023-05-20T07:03:42;6;2;
51052;PMS5003;37093;37.716;-122.060;2023-05-20T07:06:10;5;4;
51052;PMS5003;37093;37.716;-122.060;2023-05-20T07:08:39;3;2;
51052;PMS5003;37093;37.716;-122.060;2023-05-20T07:11:07;3;1;
51052;PMS5003;37093;37.716;-122.060;2023-05-20T07:13:36;3;2;
51052;PMS5003;37093;37.716;-122.060;2023-05-20T07:16:04;7;3;
51052;PMS5003;37093;37.716;-122.060;2023-05-20T07:18:32;6;3;
51052;PMS5003;37093;37.716;-122.060;2023-05-20T07:21:01;3;2;
51052;PMS5003;37093;37.716;-122.060;2023-05-20T07:23:30;6;6;
51052;PMS5003;37093;37.716;-122.060;2023-05-20T07:25:57;8;3;
51052;PMS5003;37093;37.716;-122.060;2023-05-20T07:28:26;8;6;
51052;PMS5003;37093;37.716;-122.060;2023-05-20T07:30:55;5;5;
51052;PMS5003;37093;37.716;-122.060;2023-05-20T07:33:23;8;4;
51052;PMS5003;37093;37.716;-122.060;2023-05-20T07:35:51;4;4;
51052;PMS5003;37093;37.716;-122.060;2023-05-20T07:38:20;12;6;
51052;PMS5003;37093;37.716;-122.060;2023-05-20T07:40:48;5;3;
51052;PMS5003;37093;37.716;-122.060;2023-05-20T07:43:17;6;3;
51052;PMS5003;37093;37.716;-122.060;2023-05-20T07:45:45;4;3;
51052;PMS5003;37093;37.716;-122.060;2023-05-20T07:48:14;7;5;
51052;PMS5003;37093;37.716;-122.060;2023-05-20T07:50:43;9;5;
51052;PMS5003;37093;37.716;-122.060;2023-05-20T07:53:11;16;4;
51052;PMS5003;37093;37.716;-122.060;2023-05-20T07:55:40;5;5;
51052;PMS5003;37093;37.716;-122.060;2023-05-20T07:58:09;10;5;
51052;PMS5003;37093;37.716;-122.060;2023-05-20T08:00:37;7;6;
51052;PMS5003;37093;37.716;-122.060;2023-05-20T08:03:05;5;4;
51052;PMS5003;37093;37.716;-122.060;2023-05-20T08:05:35;11;5;
51052;PMS5003;37093;37.716;-122.060;2023-05-20T08:08:04;9;5;
51052;PMS5003;37093;37.716;-122.060;2023-05-20T08:10:33;12;6;
51052;PMS5003;37093;37.716;-122.060;2023-05-20T08:13:02;9;7;
51052;PMS5003;37093;37.716;-122.060;2023-05-20T08:15:30;5;4;
51052;PMS5003;37093;37.716;-122.060;2023-05-20T08:17:58;15;7;
51052;PMS5003;37093;37.716;-122.060;2023-05-20T08:20:27;8;6;
51052;PMS5003;37093;37.716;-122.060;2023-05-20T08:22:55;9;6;
51052;PMS5003;37093;37.716;-122.060;2023-05-20T08:25:24;9;6;
51052;PMS5003;37093;37.716;-122.060;2023-05-20T08:27:53;6;4;
51052;PMS5003;37093;37.716;-122.060;2023-05-20T08:30:21;9;6;
51052;PMS5003;37093;37.716;-122.060;2023-05-20T08:32:49;4;4;
51052;PMS5003;37093;37.716;-122.060;2023-05-20T08:35:18;7;6;
51052;PMS5003;37093;37.716;-122.060;2023-05-20T08:37:46;6;6;
51052;PMS5003;37093;37.716;-122.060;2023-05-20T08:40:15;4;4;
51052;PMS5003;37093;37.716;-122.060;2023-05-20T08:42:43;9;5;
51052;PMS5003;37093;37.716;-122.060;2023-05-20T08:45:12;9;7;
51052;PMS5003;37093;37.716;-122.060;2023-05-20T08:47:43;7;5;
51052;PMS5003;37093;37.716;-122.060;2023-05-20T08:50:12;11;6;
51052;PMS5003;37093;37.716;-122.060;2023-05-20T08:52:42;11;6;
51052;PMS5003;37093;37.716;-122.060;2023-05-20T08:55:13;12;6;
51052;PMS5003;37093;37.716;-122.060;2023-05-20T08:57:43;16;10;
51052;PMS5003;37093;37.716;-122.060;2023-05-20T09:00:13;6;6;
51052;PMS5003;37093;37.716;-122.060;2023-05-20T09:02:43;10;7;
51052;PMS5003;37093;37.716;-122.060;2023-05-20T09:05:11;9;6;
51052;PMS5003;37093;37.716;-122.060;2023-05-20T09:07:40;8;6;
51052;PMS5003;37093;37.716;-122.060;2023-05-20T09:10:08;9;7;
51052;PMS5003;37093;37.716;-122.060;2023-05-20T09:12:37;7;6;
51052;PMS5003;37093;37.716;-122.060;2023-05-20T09:15:07;8;6;
51052;PMS5003;37093;37.716;-122.060;2023-05-20T09:17:36;10;7;
51052;PMS5003;37093;37.716;-122.060;2023-05-20T09:20:06;10;7;
51052;PMS5003;37093;37.716;-122.060;2023-05-20T09:22:37;5;4;
51052;PMS5003;37093;37.716;-122.060;2023-05-20T09:25:06;8;6;
51052;PMS5003;37093;37.716;-122.060;2023-05-20T09:27:35;6;5;
51052;PMS5003;37093;37.716;-122.060;2023-05-20T09:30:05;6;3;
51052;PMS5003;37093;37.716;-122.060;2023-05-20T09:32:34;17;6;
51052;PMS5003;37093;37.716;-122.060;2023-05-20T09:35:02;12;3;
51052;PMS5003;37093;37.716;-122.060;2023-05-20T09:37:31;8;6;
51052;PMS5003;37093;37.716;-122.060;2023-05-20T09:40:02;7;6;
51052;PMS5003;37093;37.716;-122.060;2023-05-20T09:42:37;7;4;
51052;PMS5003;37093;37.716;-122.060;2023-05-20T09:45:08;6;5;
51052;PMS5003;37093;37.716;-122.060;2023-05-20T09:47:37;9;7;
51052;PMS5003;37093;37.716;-122.060;2023-05-20T09:50:06;8;5;
51052;PMS5003;37093;37.716;-122.060;2023-05-20T09:52:36;7;7;
51052;PMS5003;37093;37.716;-122.060;2023-05-20T09:55:05;9;6;
51052;PMS5003;37093;37.716;-122.060;2023-05-20T09:57:35;10;4;
51052;PMS5003;37093;37.716;-122.060;2023-05-20T10:00:05;9;5;
51052;PMS5003;37093;37.716;-122.060;2023-05-20T10:02:34;7;6;
51052;PMS5003;37093;37.716;-122.060;2023-05-20T10:05:05;8;6;
51052;PMS5003;37093;37.716;-122.060;2023-05-20T10:07:43;10;7;
51052;PMS5003;37093;37.716;-122.060;2023-05-20T10:10:36;7;6;
51052;PMS5003;37093;37.716;-122.060;2023-05-20T10:13:13;6;5;
51052;PMS5003;37093;37.716;-122.060;2023-05-20T10:15:53;8;5;
51052;PMS5003;37093;37.716;-122.060;2023-05-20T10:18:30;6;6;
51052;PMS5003;37093;37.716;-122.060;2023-05-20T10:21:14;10;6;
51052;PMS5003;37093;37.716;-122.060;2023-05-20T10:23:42;5;4;
51052;PMS5003;37093;37.716;-122.060;2023-05-20T10:26:11;5;5;
51052;PMS5003;37093;37.716;-122.060;2023-05-20T10:28:40;5;5;
51052;PMS5003;37093;37.716;-122.060;2023-05-20T10:31:24;7;6;
51052;PMS5003;37093;37.716;-122.060;2023-05-20T10:33:52;4;4;
51052;PMS5003;37093;37.716;-122.060;2023-05-20T10:36:22;7;6;
51052;PMS5003;37093;37.716;-122.060;2023-05-20T10:38:52;6;5;
51052;PMS5003;37093;37.716;-122.060;2023-05-20T10:41:22;11;7;
51052;PMS5003;37093;37.716;-122.060;2023-05-20T10:44:06;5;5;
51052;PMS5003;37093;37.716;-122.060;2023-05-20T10:46:34;8;4;
51052;PMS5003;37093;37.716;-122.060;2023-05-20T10:49:03;10;6;
51052;PMS5003;37093;37.716;-122.060;2023-05-20T10:51:34;4;4;
51052;PMS5003;37093;37.716;-122.060;2023-05-20T10:54:03;6;4;
51052;PMS5003;37093;37.716;-122.060;2023-05-20T10:56:35;5;3;
51052;PMS5003;37093;37.716;-122.060;2023-05-20T10:59:04;2;2;
51052;PMS5003;37093;37.716;-122.060;2023-05-20T11:01:33;1;1;
51052;PMS5003;37093;37.716;-122.060;2023-05-20T11:04:02;2;2;
51052;PMS5003;37093;37.716;-122.060;2023-05-20T11:06:31;2;1;
51052;PMS5003;37093;37.716;-122.060;2023-05-20T11:09:02;4;2;
51052;PMS5003;37093;37.716;-122.060;2023-05-20T11:11:32;2;1;
51052;PMS5003;37093;37.716;-122.060;2023-05-20T11:14:01;3;2;
51052;PMS5003;37093;37.716;-122.060;2023-05-20T11:16:29;1;0;
51052;PMS5003;37093;37.716;-122.060;2023-05-20T11:18:58;4;3;
51052;PMS5003;37093;37.716;-122.060;2023-05-20T11:21:26;1;1;
51052;PMS5003;37093;37.716;-122.060;2023-05-20T11:23:55;2;2;
51052;PMS5003;37093;37.716;-122.060;2023-05-20T11:26:23;2;2;
51052;PMS5003;37093;37.716;-122.060;2023-05-20T11:28:52;5;2;
51052;PMS5003;37093;37.716;-122.060;2023-05-20T11:31:21;1;1;
51052;PMS5003;37093;37.716;-122.060;2023-05-20T11:33:49;2;0;
51052;PMS5003;37093;37.716;-122.060;2023-05-20T11:36:19;2;2;
51052;PMS5003;37093;37.716;-122.060;2023-05-20T11:38:48;1;1;
51052;PMS5003;37093;37.716;-122.060;2023-05-20T11:41:22;1;1;
51052;PMS5003;37093;37.716;-122.060;2023-05-20T11:43:54;0;0;
51052;PMS5003;37093;37.716;-122.060;2023-05-20T11:46:25;3;2;
51052;PMS5003;37093;37.716;-122.060;2023-05-20T11:48:54;1;0;
51052;PMS5003;37093;37.716;-122.060;2023-05-20T11:51:23;3;1;
51052;PMS5003;37093;37.716;-122.060;2023-05-20T11:53:58;2;0;
51052;PMS5003;37093;37.716;-122.060;2023-05-20T11:56:27;1;1;
51052;PMS5003;37093;37.716;-122.060;2023-05-20T11:58:56;0;0;
51052;PMS5003;37093;37.716;-122.060;2023-05-20T12:01:28;1;1;
51052;PMS5003;37093;37.716;-122.060;2023-05-20T12:03:57;0;0;
51052;PMS5003;37093;37.716;-122.060;2023-05-20T12:06:26;2;2;
51052;PMS5003;37093;37.716;-122.060;2023-05-20T12:08:54;2;1;
51052;PMS5003;37093;37.716;-122.060;2023-05-20T12:11:23;1;1;
51052;PMS5003;37093;37.716;-122.060;2023-05-20T12:13:51;3;0;
51052;PMS5003;37093;37.716;-122.060;2023-05-20T12:16:20;3;2;
51052;PMS5003;37093;37.716;-122.060;2023-05-20T12:18:48;1;1;
51052;PMS5003;37093;37.716;-122.060;2023-05-20T12:21:17;1;1;
51052;PMS5003;37093;37.716;-122.060;2023-05-20T12:23:45;0;0;
51052;PMS5003;37093;37.716;-122.060;2023-05-20T12:26:13;2;0;
51052;PMS5003;37093;37.716;-122.060;2023-05-20T12:28:42;0;0;
51052;PMS5003;37093;37.716;-122.060;2023-05-20T12:31:10;0;0;
51052;PMS5003;37093;37.716;-122.060;2023-05-20T12:33:39;1;0;
51052;PMS5003;37093;37.716;-122.060;2023-05-20T12:36:07;0;0;
51052;PMS5003;37093;37.716;-122.060;2023-05-20T12:38:36;2;1;
51052;PMS5003;37093;37.716;-122.060;2023-05-20T12:41:04;0;0;
51052;PMS5003;37093;37.716;-122.060;2023-05-20T12:43:33;0;0;
51052;PMS5003;37093;37.716;-122.060;2023-05-20T12:46:03;2;0;
51052;PMS5003;37093;37.716;-122.060;2023-05-20T12:48:32;0;0;
51052;PMS5003;37093;37.716;-122.060;2023-05-20T12:51:00;1;1;
51052;PMS5003;37093;37.716;-122.060;2023-05-20T12:53:29;0;0;
51052;PMS5003;37093;37.716;-122.060;2023-05-20T12:55:58;0;0;
51052;PMS5003;37093;37.716;-122.060;2023-05-20T12:58:26;0;0;
51052;PMS5003;37093;37.716;-122.060;2023-05-20T13:00:55;0;0;
51052;PMS5003;37093;37.716;-122.060;2023-05-20T13:03:23;1;1;
51052;PMS5003;37093;37.716;-122.060;2023-05-20T13:05:52;0;0;
51052;PMS5003;37093;37.716;-122.060;2023-05-20T13:08:22;0;0;
51052;PMS5003;37093;37.716;-122.060;2023-05-20T13:10:50;2;2;
51052;PMS5003;37093;37.716;-122.060;2023-05-20T13:13:18;1;1;
51052;PMS5003;37093;37.716;-122.060;2023-05-20T13:15:47;2;0;
51052;PMS5003;37093;37.716;-122.060;2023-05-20T13:18:16;2;1;
51052;PMS5003;37093;37.716;-122.060;2023-05-20T13:20:44;1;1;
51052;PMS5003;37093;37.716;-122.060;2023-05-20T13:23:13;3;3;
51052;PMS5003;37093;37.716;-122.060;2023-05-20T13:25:41;1;0;
51052;PMS5003;37093;37.716;-122.060;2023-05-20T13:28:10;2;1;
51052;PMS5003;37093;37.716;-122.060;2023-05-20T13:30:38;3;0;
51052;PMS5003;37093;37.716;-122.060;2023-05-20T13:33:07;2;1;
51052;PMS5003;37093;37.716;-122.060;2023-05-20T13:35:36;2;2;
51052;PMS5003;37093;37.716;-122.060;2023-05-20T13:38:04;1;1;
51052;PMS5003;37093;37.716;-122.060;2023-05-20T13:40:33;3;1;
51052;PMS5003;37093;37.716;-122.060;2023-05-20T13:43:01;0;0;
51052;PMS5003;37093;37.716;-122.060;2023-05-20T13:45:30;0;0;
51052;PMS5003;37093;37.716;-122.060;2023-05-20T13:47:59;0;0;
51052;PMS5003;37093;37.716;-122.060;2023-05-20T13:50:27;1;1;
51052;PMS5003;37093;37.716;-122.060;2023-05-20T13:52:55;0;0;
51052;PMS5003;37093;37.716;-122.060;2023-05-20T13:55:24;1;1;
51052;PMS5003;37093;37.716;-122.060;2023-05-20T13:57:53;1;1;
51052;PMS5003;37093;37.716;-122.060;2023-05-20T14:00:21;0;0;
51052;PMS5003;37093;37.716;-122.060;2023-05-20T14:02:50;1;1;
51052;PMS5003;37093;37.716;-122.060;2023-05-20T14:05:18;1;1;
51052;PMS5003;37093;37.716;-122.060;2023-05-20T14:07:47;0;0;
51052;PMS5003;37093;37.716;-122.060;2023-05-20T14:10:16;4;1;
51052;PMS5003;37093;37.716;-122.060;2023-05-20T14:12:44;1;1;
51052;PMS5003;37093;37.716;-122.060;2023-05-20T14:15:13;2;2;
51052;PMS5003;37093;37.716;-122.060;2023-05-20T14:17:41;1;1;
51052;PMS5003;37093;37.716;-122.060;2023-05-20T14:20:10;2;2;
51052;PMS5003;37093;37.716;-122.060;2023-05-20T14:22:38;4;2;
51052;PMS5003;37093;37.716;-122.060;2023-05-20T14:25:07;1;1;
51052;PMS5003;37093;37.716;-122.060;2023-05-20T14:27:35;1;1;
51052;PMS5003;37093;37.716;-122.060;2023-05-20T14:30:04;4;2;
51052;PMS5003;37093;37.716;-122.060;2023-05-20T14:32:34;2;1;
51052;PMS5003;37093;37.716;-122.060;2023-05-20T14:35:03;3;2;
51052;PMS5003;37093;37.716;-122.060;2023-05-20T14:37:31;2;2;
51052;PMS5003;37093;37.716;-122.060;2023-05-20T14:40:00;3;2;
51052;PMS5003;37093;37.716;-122.060;2023-05-20T14:42:30;2;1;
51052;PMS5003;37093;37.716;-122.060;2023-05-20T14:44:58;2;2;
51052;PMS5003;37093;37.716;-122.060;2023-05-20T14:47:27;5;5;
51052;PMS5003;37093;37.716;-122.060;2023-05-20T14:49:56;4;2;
51052;PMS5003;37093;37.716;-122.060;2023-05-20T14:52:24;0;0;
51052;PMS5003;37093;37.716;-122.060;2023-05-20T14:54:53;2;2;
51052;PMS5003;37093;37.716;-122.060;2023-05-20T14:57:21;3;3;
51052;PMS5003;37093;37.716;-122.060;2023-05-20T14:59:50;0;0;
51052;PMS5003;37093;37.716;-122.060;2023-05-20T15:02:18;3;2;
51052;PMS5003;37093;37.716;-122.060;2023-05-20T15:04:47;1;1;
51052;PMS5003;37093;37.716;-122.060;2023-05-20T15:07:15;3;3;
51052;PMS5003;37093;37.716;-122.060;2023-05-20T15:09:44;3;2;
51052;PMS5003;37093;37.716;-122.060;2023-05-20T15:12:13;2;2;
51052;PMS5003;37093;37.716;-122.060;2023-05-20T15:14:41;0;0;
51052;PMS5003;37093;37.716;-122.060;2023-05-20T15:17:09;3;3;
51052;PMS5003;37093;37.716;-122.060;2023-05-20T15:19:38;1;1;
51052;PMS5003;37093;37.716;-122.060;2023-05-20T15:22:06;4;1;
51052;PMS5003;37093;37.716;-122.060;2023-05-20T15:24:35;2;2;
51052;PMS5003;37093;37.716;-122.060;2023-05-20T15:27:04;4;2;
51052;PMS5003;37093;37.716;-122.060;2023-05-20T15:29:32;2;2;
51052;PMS5003;37093;37.716;-122.060;2023-05-20T15:32:01;1;1;
51052;PMS5003;37093;37.716;-122.060;2023-05-20T15:34:29;2;2;
51052;PMS5003;37093;37.716;-122.060;2023-05-20T15:36:58;2;2;
51052;PMS5003;37093;37.716;-122.060;2023-05-20T15:39:26;3;3;
51052;PMS5003;37093;37.716;-122.060;2023-05-20T15:41:55;5;3;
51052;PMS5003;37093;37.716;-122.060;2023-05-20T15:44:23;3;3;
51052;PMS5003;37093;37.716;-122.060;2023-05-20T15:46:52;2;2;
51052;PMS5003;37093;37.716;-122.060;2023-05-20T15:49:21;5;3;
51052;PMS5003;37093;37.716;-122.060;2023-05-20T15:51:50;2;1;
51052;PMS5003;37093;37.716;-122.060;2023-05-20T15:54:18;1;1;
51052;PMS5003;37093;37.716;-122.060;2023-05-20T15:56:46;1;1;
51052;PMS5003;37093;37.716;-122.060;2023-05-20T15:59:15;1;1;
51052;PMS5003;37093;37.716;-122.060;2023-05-20T16:01:43;1;1;
51052;PMS5003;37093;37.716;-122.060;2023-05-20T16:04:12;3;3;
51052;PMS5003;37093;37.716;-122.060;2023-05-20T16:06:40;1;1;
51052;PMS5003;37093;37.716;-122.060;2023-05-20T16:09:09;1;1;
51052;PMS5003;37093;37.716;-122.060;2023-05-20T16:11:37;3;3;